Time;durP1;ratioP1;P1;durP2;ratioP2;P2;SDS_P1;SDS_P2;PMS_P1;PMS_P2;Temp;Humidity;BMP_temperature;BMP_pressure;BME280_temperature;BME280_humidity;BME280_pressure;Samples;Min_cycle;Max_cycle;Signal;HPM_P1;HPM_P2
2023/04/27 07:01:36;;;;;;;5.50;1.50;;;12.20;99.90;15.10;101904.00;;;;6309126;22;20177;-71
2023/04/27 07:04:21;;;;;;;0.30;0.30;;;12.40;99.90;16.60;101950.00;;;;6282471;22;20195;-71
2023/04/27 07:06:53;;;;;;;1.43;1.23;;;13.00;99.90;17.30;101937.00;;;;6256249;22;20158;-69
2023/04/27 07:09:19;;;;;;;1.13;1.13;;;13.50;99.90;16.60;101949.00;;;;6282648;22;20218;-70
2023/04/27 07:11:56;;;;;;;3.90;2.13;;;13.50;99.90;15.60;101976.00;;;;6309382;22;20481;-70
2023/04/27 07:14:34;;;;;;;2.27;0.97;;;13.10;99.90;14.60;101962.00;;;;6282566;22;20568;-70
2023/04/27 07:17:00;;;;;;;3.60;2.50;;;12.20;99.90;15.80;101951.00;;;;6282516;22;20147;-70
2023/04/27 07:19:31;;;;;;;4.73;1.87;;;12.60;99.90;14.10;101983.00;;;;6281963;22;20232;-70
2023/04/27 07:22:07;;;;;;;0.50;0.50;;;12.20;99.90;15.90;101958.00;;;;6309270;22;20594;-70
2023/04/27 07:24:37;;;;;;;2.10;0.93;;;12.30;99.90;15.90;101957.00;;;;6282703;22;20142;-70
2023/04/27 07:27:19;;;;;;;1.50;1.40;;;12.70;99.90;17.10;101935.00;;;;6309395;22;20175;-70
2023/04/27 07:29:48;;;;;;;1.97;1.87;;;13.30;99.90;16.40;101964.00;;;;6281602;22;20158;-70
2023/04/27 07:32:20;;;;;;;2.57;0.97;;;13.80;99.90;16.40;101962.00;;;;6282723;22;20154;-70
2023/04/27 07:34:54;;;;;;;1.57;1.17;;;13.80;99.90;15.70;101969.00;;;;6309324;22;20461;-70
2023/04/27 07:37:24;;;;;;;1.57;1.47;;;13.10;99.90;15.30;101968.00;;;;6281820;22;20214;-70
2023/04/27 07:39:51;;;;;;;0.60;0.53;;;12.80;99.90;16.20;101955.00;;;;6308856;22;20182;-70
2023/04/27 07:42:21;;;;;;;4.80;1.17;;;13.10;99.90;15.90;101947.00;;;;6281862;22;20186;-70
2023/04/27 07:45:02;;;;;;;0.93;0.93;;;13.00;99.90;17.30;101939.00;;;;6282615;22;20173;-70
2023/04/27 07:47:37;;;;;;;0.10;0.10;;;13.60;99.90;16.20;101947.00;;;;6282047;22;20151;-71
2023/04/27 07:50:23;;;;;;;;;;;;;;;;;;;;;
2023/04/27 07:53:24;;;;;;;0.67;0.67;;;13.40;99.90;18.20;101962.00;;;;6284187;22;20244;-70
2023/04/27 07:56:19;;;;;;;0.40;0.40;;;14.40;99.90;18.20;101957.00;;;;6128940;23;20553;-70
2023/04/27 07:59:03;;;;;;;4.23;3.13;;;14.70;99.90;17.50;101937.00;;;;6105251;23;20677;-70
2023/04/27 08:01:38;;;;;;;1.07;1.07;;;14.50;99.90;18.20;101918.00;;;;6301787;22;20537;-70
2023/04/27 08:04:07;;;;;;;1.27;0.97;;;14.50;99.90;16.80;101948.00;;;;6308873;22;20137;-71
2023/04/27 08:06:38;;;;;;;3.55;2.67;;;14.50;99.90;17.90;101932.00;;;;6280429;22;20678;-70
2023/04/27 08:09:06;;;;;;;1.43;1.03;;;14.70;99.90;16.20;101945.00;;;;6308763;22;20141;-70
2023/04/27 08:11:38;;;;;;;0.73;0.60;;;14.40;99.90;16.00;101939.00;;;;6308813;22;20452;-70
2023/04/27 08:14:03;;;;;;;2.70;1.20;;;13.80;99.90;16.80;101938.00;;;;6307356;22;20164;-70
2023/04/27 08:16:32;;;;;;;1.47;1.30;;;14.00;99.90;17.50;101933.00;;;;6281304;22;20156;-70
2023/04/27 08:19:09;;;;;;;0.57;0.53;;;14.10;99.90;17.80;101932.00;;;;6282540;22;20176;-70
2023/04/27 08:21:40;;;;;;;2.70;1.57;;;14.50;99.90;17.80;101911.00;;;;6281116;22;20142;-71
2023/04/27 08:24:06;;;;;;;0.67;0.67;;;14.60;99.90;18.90;101920.00;;;;6281596;22;20173;-70
2023/04/27 08:26:42;;;;;;;3.67;1.40;;;15.30;99.90;18.10;101906.00;;;;6308188;22;20151;-70
2023/04/27 08:29:08;;;;;;;3.00;1.90;;;15.30;99.90;18.30;101907.00;;;;6282268;22;20169;-70
2023/04/27 08:31:39;;;;;;;1.33;1.23;;;15.40;99.90;18.90;101901.00;;;;6308530;22;20559;-70
2023/04/27 08:34:05;;;;;;;2.50;1.73;;;15.70;99.90;18.00;101904.00;;;;6255973;22;20177;-70
2023/04/27 08:36:31;;;;;;;0.80;0.77;;;15.40;99.90;16.80;101918.00;;;;6255025;22;20570;-70
2023/04/27 08:38:57;;;;;;;0.33;0.33;;;14.80;99.90;16.80;101917.00;;;;6281051;22;20683;-70
2023/04/27 08:41:23;;;;;;;3.53;2.43;;;14.50;99.90;15.30;101893.00;;;;6308625;22;20480;-70
2023/04/27 08:43:52;;;;;;;2.33;1.77;;;13.80;99.90;16.30;101927.00;;;;6308760;22;20172;-70
2023/04/27 08:46:23;;;;;;;4.33;3.00;;;13.60;99.90;15.50;101948.00;;;;6281121;22;20143;-70
2023/04/27 08:49:02;;;;;;;1.27;1.17;;;13.30;99.90;17.30;101913.00;;;;6280789;22;20469;-70
2023/04/27 08:51:34;;;;;;;5.13;1.37;;;13.70;99.90;17.80;101928.00;;;;6308073;22;20143;-70
2023/04/27 08:54:06;;;;;;;2.80;1.53;;;14.40;99.90;18.80;101913.00;;;;6309174;22;20159;-70
2023/04/27 08:56:32;;;;;;;1.20;0.97;;;15.00;99.90;18.10;101941.00;;;;6281032;22;20170;-70
2023/04/27 08:59:01;;;;;;;2.37;2.13;;;15.20;99.90;17.50;101927.00;;;;6281173;22;20240;-70
2023/04/27 09:01:27;;;;;;;2.00;1.73;;;14.50;99.90;17.40;101914.00;;;;6280720;22;20615;-70
2023/04/27 09:04:02;;;;;;;5.60;3.27;;;14.30;99.90;16.90;101913.00;;;;6280578;22;20144;-70
2023/04/27 09:06:37;;;;;;;3.10;1.67;;;14.20;99.90;17.20;101926.00;;;;6280971;22;20157;-70
2023/04/27 09:09:09;;;;;;;0.63;0.63;;;14.10;99.90;17.10;101911.00;;;;6308034;22;20523;-70
2023/04/27 09:11:38;;;;;;;2.07;1.90;;;14.20;99.90;15.70;101930.00;;;;6255468;22;20517;-69
2023/04/27 09:14:22;;;;;;;12.80;3.47;;;13.70;99.90;15.50;101936.00;;;;6308010;22;20156;-69
2023/04/27 09:16:56;;;;;;;1.20;1.13;;;13.50;99.90;16.40;101903.00;;;;6280467;22;20189;-69
2023/04/27 09:19:32;;;;;;;1.53;1.43;;;13.50;99.90;17.00;101921.00;;;;6280813;22;20146;-70
2023/04/27 09:22:09;;;;;;;0.77;0.77;;;14.00;99.90;17.40;101928.00;;;;6307915;22;20172;-70
2023/04/27 09:24:36;;;;;;;2.60;2.13;;;14.20;99.90;17.40;101922.00;;;;6280657;22;20637;-70
2023/04/27 09:27:03;;;;;;;6.50;3.27;;;14.30;99.90;16.70;101928.00;;;;6280857;22;20150;-69
2023/04/27 09:29:37;;;;;;;0.83;0.77;;;14.40;99.90;17.80;101880.00;;;;6281111;22;20148;-70
2023/04/27 09:32:23;;;;;;;1.23;1.13;;;14.60;99.90;17.20;101932.00;;;;6280909;22;20222;-70
2023/04/27 09:34:49;;;;;;;1.33;1.23;;;14.50;99.90;17.80;101943.00;;;;6280455;22;20162;-70
2023/04/27 09:37:29;;;;;;;0.33;0.33;;;14.70;99.90;18.70;101912.00;;;;6307987;22;20564;-70
2023/04/27 09:39:55;;;;;;;1.37;1.33;;;15.20;99.90;18.60;101916.00;;;;6280751;22;20164;-70
2023/04/27 09:42:21;;;;;;;1.67;0.80;;;15.50;99.90;15.90;101918.00;;;;6280805;22;20502;-70
2023/04/27 09:44:48;;;;;;;1.90;1.73;;;14.80;99.90;16.60;101919.00;;;;6254758;22;20166;-70
2023/04/27 09:47:20;;;;;;;2.47;1.20;;;14.10;99.90;17.70;101903.00;;;;6280378;22;20448;-70
2023/04/27 09:49:49;;;;;;;1.80;1.40;;;14.50;99.90;17.50;101896.00;;;;6280620;22;20639;-70
2023/04/27 09:52:15;;;;;;;1.23;0.50;;;14.70;99.90;18.70;101896.00;;;;6280742;22;20621;-70
2023/04/27 09:54:47;;;;;;;0.10;0.10;;;15.20;99.90;18.60;101888.00;;;;6280260;22;20136;-71
2023/04/27 09:57:29;;;;;;;1.15;1.15;;;15.10;99.90;18.40;101897.00;;;;6280417;22;20373;-70
2023/04/27 10:00:15;;;;;;;7.50;0.83;;;15.50;99.90;18.70;101849.00;;;;6307834;22;20167;-70
2023/04/27 10:03:06;;;;;;;2.43;1.77;;;15.60;99.90;18.40;101887.00;;;;6307197;22;20169;-70
2023/04/27 10:05:50;;;;;;;0.67;0.67;;;15.50;99.90;17.40;101904.00;;;;6280607;22;20227;-70
2023/04/27 10:08:16;;;;;;;1.63;1.53;;;15.20;99.90;16.30;101900.00;;;;6280538;22;20140;-70
2023/04/27 10:10:53;;;;;;;2.20;1.43;;;14.40;99.90;18.50;101886.00;;;;6307368;22;20162;-70
2023/04/27 10:13:25;;;;;;;1.83;1.73;;;14.90;99.90;17.80;101884.00;;;;6280069;22;20163;-70
2023/04/27 10:15:52;;;;;;;1.53;1.43;;;14.80;99.90;19.40;101884.00;;;;6280086;22;20454;-70
2023/04/27 10:18:28;;;;;;;0.47;0.47;;;15.50;99.90;18.00;101881.00;;;;6280287;22;20147;-70
2023/04/27 10:33:29;;;;;;;0.60;0.60;;;14.30;99.90;17.50;101863.00;;;;5069870;28;20619;-68
2023/04/27 10:35:59;;;;;;;1.30;1.20;;;14.70;99.90;17.50;101831.00;;;;5048979;28;20196;-68
2023/04/27 10:38:40;;;;;;;2.37;1.83;;;14.90;99.90;18.20;101879.00;;;;5050239;28;20205;-68
2023/04/27 10:41:13;;;;;;;0.73;0.60;;;15.20;99.90;18.30;101864.00;;;;5050186;28;20183;-68
2023/04/27 10:43:44;;;;;;;1.60;1.33;;;15.30;99.90;18.50;101851.00;;;;5048916;28;20268;-68
2023/04/27 10:46:13;;;;;;;2.13;1.60;;;15.30;99.90;17.70;101870.00;;;;5050146;28;20547;-68
2023/04/27 10:48:46;;;;;;;2.27;0.87;;;15.10;99.90;18.60;101857.00;;;;5028962;28;20183;-68
2023/04/27 10:51:16;;;;;;;6.13;1.63;;;15.10;99.90;17.50;101857.00;;;;5074769;28;20730;-68
2023/04/27 10:53:43;;;;;;;1.53;1.43;;;15.10;99.90;19.00;101830.00;;;;5049077;28;20200;-68
2023/04/27 10:56:15;;;;;;;0.83;0.83;;;15.40;99.90;19.50;101843.00;;;;5048045;28;20219;-68
2023/04/27 10:58:42;;;;;;;0.73;0.70;;;15.80;99.90;18.70;101786.00;;;;5049006;28;20186;-68
2023/04/27 11:01:22;;;;;;;1.63;1.50;;;15.70;99.90;17.60;101846.00;;;;5049633;28;20183;-68
2023/04/27 11:04:01;;;;;;;1.60;0.97;;;15.20;99.90;18.70;101850.00;;;;5048508;28;20206;-68
2023/04/27 11:06:45;;;;;;;4.37;1.43;;;15.50;99.90;19.50;101845.00;;;;5026303;28;20178;-68
2023/04/27 11:09:13;;;;;;;0.53;0.53;;;15.90;99.90;19.00;101823.00;;;;5048614;28;20184;-68
2023/04/27 11:11:46;;;;;;;2.27;1.43;;;16.00;99.90;19.50;101831.00;;;;5048687;28;20241;-68
2023/04/27 11:14:25;;;;;;;1.90;1.70;;;16.20;99.90;18.60;101826.00;;;;5048193;28;20185;-68
2023/04/27 11:16:57;;;;;;;1.90;1.80;;;15.70;99.90;19.00;101844.00;;;;5039351;28;20183;-68
2023/04/27 11:19:42;;;;;;;0.83;0.83;;;16.30;99.90;18.00;101842.00;;;;5043855;28;20184;-68
2023/04/27 11:22:18;;;;;;;2.83;1.93;;;15.60;99.90;19.40;101830.00;;;;5061738;28;20191;-68
2023/04/27 11:24:53;;;;;;;1.13;0.97;;;16.20;99.90;18.40;101832.00;;;;5073704;28;20197;-68
2023/04/27 11:27:26;;;;;;;0.50;0.50;;;16.00;99.90;18.80;101816.00;;;;5047885;28;20178;-68
2023/04/27 11:29:52;;;;;;;1.00;0.83;;;15.60;99.90;17.70;101827.00;;;;5049060;28;20714;-68
2023/04/27 11:32:22;;;;;;;2.97;2.20;;;15.40;99.90;18.80;101818.00;;;;5049101;28;20303;-68
2023/04/27 11:35:08;;;;;;;3.40;1.83;;;15.90;99.90;19.50;101810.00;;;;5031218;28;20214;-68
2023/04/27 11:37:35;;;;;;;0.87;0.80;;;16.30;99.90;19.50;101803.00;;;;5048420;28;20192;-68
2023/04/27 11:40:03;;;;;;;1.20;0.47;;;16.20;99.90;20.00;101805.00;;;;5028149;28;20559;-69
2023/04/27 11:42:33;;;;;;;3.30;1.97;;;16.60;99.90;18.10;101809.00;;;;5077891;28;20207;-68
2023/04/27 11:45:11;;;;;;;3.23;0.70;;;16.30;99.90;19.00;101808.00;;;;5033758;28;20193;-68
2023/04/27 11:47:48;;;;;;;0.30;0.30;;;15.90;99.90;20.10;101760.00;;;;5034684;28;20197;-68
2023/04/27 11:50:18;;;;;;;2.10;0.97;;;16.40;99.90;20.00;101803.00;;;;5034620;28;20203;-69
2023/04/27 11:52:49;;;;;;;1.97;1.33;;;16.70;99.90;18.90;101800.00;;;;5034699;28;20272;-68
2023/04/27 11:55:21;;;;;;;1.33;1.03;;;16.50;99.90;17.70;101818.00;;;;5035499;28;20634;-68
2023/04/27 11:57:47;;;;;;;1.57;1.47;;;15.50;99.90;18.10;101798.00;;;;5026619;28;20632;-68
2023/04/27 12:00:17;;;;;;;10.00;3.03;;;15.50;99.90;18.50;101801.00;;;;5034336;28;20680;-68
2023/04/27 12:02:46;;;;;;;0.57;0.57;;;15.60;99.90;18.40;101804.00;;;;5035298;28;20191;-69
2023/04/27 12:05:12;;;;;;;2.73;1.90;;;15.70;99.90;19.60;101786.00;;;;5034530;28;20198;-69
2023/04/27 12:07:42;;;;;;;3.50;2.10;;;16.00;99.90;18.00;101790.00;;;;5034352;28;20584;-68
2023/04/27 12:10:16;;;;;;;2.00;1.13;;;15.90;99.90;18.30;101793.00;;;;5034365;28;20191;-68
2023/04/27 12:12:53;;;;;;;0.57;0.57;;;15.80;99.90;18.90;101770.00;;;;5029557;28;20254;-68
2023/04/27 12:15:19;;;;;;;2.00;1.90;;;15.80;99.90;19.00;101777.00;;;;5033675;28;20174;-69
2023/04/27 12:17:45;;;;;;;1.80;0.77;;;15.90;99.90;18.40;101784.00;;;;5033830;28;20193;-69
2023/04/27 12:20:13;;;;;;;1.40;0.90;;;15.70;99.90;17.30;101733.00;;;;5017810;28;20190;-69
2023/04/27 12:22:45;;;;;;;2.27;2.07;;;15.30;99.90;18.40;101787.00;;;;5034060;28;20475;-69
2023/04/27 12:25:18;;;;;;;0.40;0.40;;;15.20;99.90;19.00;101754.00;;;;5035122;28;20214;-68
2023/04/27 12:27:47;;;;;;;2.37;2.17;;;15.60;99.90;19.30;101776.00;;;;5034591;28;20645;-69
2023/04/27 12:30:20;;;;;;;2.47;1.33;;;16.10;99.90;19.00;101762.00;;;;5033834;28;20561;-69
2023/04/27 12:32:46;;;;;;;0.20;0.20;;;16.00;99.90;18.60;101761.00;;;;5013918;28;20622;-69
2023/04/27 12:35:15;;;;;;;0.80;0.60;;;15.70;99.90;19.70;101752.00;;;;5030092;28;20204;-68
2023/04/27 12:37:44;;;;;;;4.30;1.67;;;16.20;99.90;19.20;101716.00;;;;5033714;28;20194;-68
2023/04/27 12:40:10;;;;;;;6.80;3.27;;;16.20;99.90;18.70;101756.00;;;;5034628;28;20187;-68
2023/04/27 12:43:11;;;;;;;1.80;1.70;;;15.90;99.90;18.50;101710.00;;;;5035016;28;20205;-68
2023/04/27 12:45:37;;;;;;;3.00;2.47;;;15.60;99.90;17.60;101766.00;;;;5034927;28;20198;-69
2023/04/27 12:48:04;;;;;;;3.57;2.93;;;15.50;99.90;18.90;101709.00;;;;5033392;28;20521;-68
2023/04/27 12:50:34;;;;;;;2.73;1.53;;;15.80;99.90;18.30;101758.00;;;;5033183;28;20191;-68
2023/04/27 12:53:04;;;;;;;2.33;1.17;;;15.80;99.90;19.10;101753.00;;;;5033211;28;20212;-69
2023/04/27 12:55:30;;;;;;;2.53;0.50;;;15.80;99.90;19.40;101755.00;;;;5016056;28;20187;-69
2023/04/27 12:57:57;;;;;;;1.27;1.17;;;16.10;99.90;18.20;101755.00;;;;5034643;28;20214;-68
2023/04/27 13:00:26;;;;;;;0.37;0.37;;;15.90;99.90;19.00;101733.00;;;;5033411;28;20188;-68
2023/04/27 13:02:52;;;;;;;3.23;2.50;;;15.80;99.90;19.00;101715.00;;;;5034540;28;20687;-68
2023/04/27 13:05:19;;;;;;;2.10;1.10;;;15.80;99.90;19.00;101715.00;;;;5032976;28;20225;-68
2023/04/27 13:07:45;;;;;;;2.93;1.83;;;15.90;99.90;19.10;101721.00;;;;5033120;28;20300;-68
2023/04/27 13:10:11;;;;;;;2.50;1.83;;;16.10;99.90;18.40;101725.00;;;;5034117;28;20213;-68
2023/04/27 13:12:39;;;;;;;0.90;0.90;;;16.00;99.90;18.30;101705.00;;;;5034078;28;20242;-68
2023/04/27 13:15:09;;;;;;;2.50;2.20;;;15.60;99.90;19.00;101717.00;;;;5023994;28;20178;-68
2023/04/27 13:17:40;;;;;;;2.47;2.00;;;16.00;99.90;19.10;101724.00;;;;5032595;28;20221;-68
2023/04/27 13:20:14;;;;;;;1.37;1.27;;;16.10;99.90;18.60;101708.00;;;;5033994;28;20265;-68
2023/04/27 13:22:46;;;;;;;4.27;2.67;;;16.10;99.90;19.00;101716.00;;;;5005850;28;20195;-68
2023/04/27 13:25:12;;;;;;;1.50;1.43;;;16.10;99.90;19.50;101701.00;;;;5032640;28;20544;-68
2023/04/27 13:27:38;;;;;;;2.00;1.43;;;16.20;99.90;19.30;101697.00;;;;5034376;28;20254;-68
2023/04/27 13:30:10;;;;;;;3.90;1.40;;;16.40;99.90;19.20;101685.00;;;;5033057;28;20647;-68
2023/04/27 13:32:36;;;;;;;0.83;0.80;;;16.30;99.90;19.60;101701.00;;;;5032052;28;20679;-68
2023/04/27 13:35:06;;;;;;;8.00;3.50;;;16.30;99.90;18.70;101695.00;;;;5032462;28;20699;-68
2023/04/27 13:37:44;;;;;;;1.43;0.83;;;16.10;99.90;19.50;101679.00;;;;5032375;28;20547;-70
2023/04/27 13:40:18;;;;;;;3.00;1.50;;;16.20;99.90;19.60;101686.00;;;;5033567;28;20201;-68
2023/04/27 13:42:52;;;;;;;1.00;0.93;;;16.50;99.90;19.70;101678.00;;;;5031232;28;20194;-69
2023/04/27 13:45:24;;;;;;;1.50;1.40;;;16.40;99.90;19.70;101671.00;;;;5016137;28;20192;-68
2023/04/27 13:47:55;;;;;;;0.63;0.63;;;16.50;99.90;19.80;101677.00;;;;5031448;28;20206;-68
2023/04/27 13:50:21;;;;;;;0.80;0.80;;;16.60;99.90;20.20;101670.00;;;;5016239;28;20216;-68
2023/04/27 13:52:47;;;;;;;0.67;0.67;;;17.00;99.90;19.80;101664.00;;;;5033429;28;20225;-68
2023/04/27 13:55:36;;;;;;;3.83;2.40;;;17.00;99.90;19.30;101670.00;;;;5032036;28;20188;-68
2023/04/27 13:58:07;;;;;;;0.67;0.67;;;16.80;99.90;19.60;101661.00;;;;5020865;28;20267;-68
2023/04/27 14:00:50;;;;;;;1.67;1.57;;;16.40;99.90;19.30;101667.00;;;;5032113;28;20184;-68
2023/04/27 14:03:16;;;;;;;2.10;1.90;;;16.40;99.90;19.10;101658.00;;;;5032137;28;20201;-68
2023/04/27 14:05:43;;;;;;;1.97;1.87;;;16.10;99.90;19.60;101674.00;;;;5015493;28;20552;-68
2023/04/27 14:08:10;;;;;;;4.17;2.97;;;16.20;99.90;18.60;101665.00;;;;5028544;28;20198;-68
2023/04/27 14:10:40;;;;;;;1.80;1.50;;;16.10;99.90;19.00;101663.00;;;;5065033;28;20174;-68
2023/04/27 14:13:21;;;;;;;;;;;;;;;;;;;;;
2023/04/27 14:15:47;;;;;;;0.27;0.27;;;16.00;99.90;19.80;101664.00;;;;5031846;28;20186;-68
2023/04/27 14:18:14;;;;;;;1.13;1.03;;;16.10;99.90;19.10;101674.00;;;;5032070;28;20283;-68
2023/04/27 14:21:27;;;;;;;1.83;1.73;;;16.10;99.90;18.80;101648.00;;;;5033496;28;20185;-68
2023/04/27 14:24:21;;;;;;;2.83;1.50;;;15.70;99.90;19.50;101621.00;;;;5023179;28;20208;-68
2023/04/27 14:26:49;;;;;;;2.80;1.30;;;16.10;99.90;18.80;101674.00;;;;5030373;28;20192;-68
2023/04/27 14:29:15;;;;;;;1.60;1.50;;;16.10;99.90;18.70;101655.00;;;;5032097;28;20208;-68
2023/04/27 14:31:40;;;;;;;2.33;1.97;;;16.00;99.90;17.40;101606.00;;;;5032935;28;20220;-68
2023/04/27 14:34:10;;;;;;;1.87;1.17;;;15.60;99.90;19.20;101639.00;;;;5027428;28;20192;-68
2023/04/27 14:36:39;;;;;;;1.23;1.03;;;15.70;99.90;18.80;101631.00;;;;5031742;28;20213;-68
2023/04/27 14:39:08;;;;;;;8.23;3.43;;;15.90;99.90;18.70;101643.00;;;;5031768;28;20211;-69
2023/04/27 14:41:38;;;;;;;1.87;1.17;;;16.00;99.90;19.40;101641.00;;;;5031677;28;20225;-68
2023/04/27 14:44:07;;;;;;;0.10;0.10;;;16.00;99.90;19.40;101644.00;;;;5031803;28;20187;-68
2023/04/27 14:46:45;;;;;;;0.50;0.50;;;16.20;99.90;19.80;101638.00;;;;5031460;28;20192;-68
2023/04/27 14:49:14;;;;;;;0.47;0.47;;;16.40;99.90;18.90;101641.00;;;;5022665;28;20179;-68
2023/04/27 14:51:40;;;;;;;4.13;0.93;;;16.10;99.90;19.80;101633.00;;;;5031542;28;20203;-68
2023/04/27 14:54:10;;;;;;;1.33;1.23;;;16.20;99.90;20.00;101605.00;;;;5032784;28;20680;-68
2023/04/27 14:56:36;;;;;;;0.30;0.30;;;16.50;99.90;20.60;101626.00;;;;5032777;28;20278;-68
2023/04/27 14:59:02;;;;;;;0.47;0.37;;;16.70;99.90;19.70;101620.00;;;;5032482;28;20216;-68
2023/04/27 15:01:28;;;;;;;2.60;2.50;;;16.60;99.90;19.40;101618.00;;;;5031304;28;20287;-68
2023/04/27 15:03:56;;;;;;;3.57;2.13;;;16.20;99.90;19.60;101605.00;;;;5033093;28;20605;-68
2023/04/27 15:06:29;;;;;;;3.10;1.57;;;16.30;99.90;18.30;101615.00;;;;5031202;28;20282;-68
2023/04/27 15:08:55;;;;;;;1.33;1.23;;;16.10;99.90;19.00;101613.00;;;;5032950;28;20581;-68
2023/04/27 15:11:21;;;;;;;2.10;1.60;;;16.00;99.90;19.30;101604.00;;;;5032697;28;20213;-68
2023/04/27 15:13:47;;;;;;;0.80;0.80;;;16.10;99.90;19.00;101607.00;;;;5031498;28;20182;-68
2023/04/27 15:16:13;;;;;;;1.50;1.33;;;16.10;99.90;19.30;101607.00;;;;5031626;28;20192;-68
2023/04/27 15:18:39;;;;;;;1.03;1.03;;;16.30;99.90;19.50;101603.00;;;;5033510;28;20588;-68
2023/04/27 15:21:06;;;;;;;3.00;2.80;;;16.30;99.90;19.10;101598.00;;;;5032345;28;20179;-68
2023/04/27 15:23:33;;;;;;;2.60;1.40;;;16.10;99.90;18.90;101612.00;;;;5036514;28;20193;-68
2023/04/27 15:26:00;;;;;;;0.80;0.80;;;15.90;99.90;19.60;101607.00;;;;5035107;28;20229;-68
2023/04/27 15:28:32;;;;;;;1.87;1.40;;;16.10;99.90;18.90;101606.00;;;;5036210;28;20184;-68
2023/04/27 15:30:58;;;;;;;0.57;0.57;;;15.90;99.90;19.40;101597.00;;;;5034743;28;20653;-69
2023/04/27 15:33:27;;;;;;;1.93;1.30;;;16.10;99.90;18.80;101594.00;;;;5034794;28;20303;-68
2023/04/27 15:36:01;;;;;;;0.27;0.27;;;15.90;99.90;19.10;101532.00;;;;5035503;28;20183;-68
2023/04/27 15:38:51;;;;;;;2.63;2.33;;;15.90;99.90;18.90;101555.00;;;;5034910;28;20546;-68
2023/04/27 15:41:17;;;;;;;1.43;1.33;;;16.10;99.90;19.50;101545.00;;;;5024361;28;20221;-68
2023/04/27 15:44:15;;;;;;;1.80;1.03;;;16.10;99.90;19.10;101577.00;;;;5034743;28;20191;-68
2023/04/27 15:47:23;;;;;;;0.97;0.97;;;16.20;99.90;19.50;101567.00;;;;5035810;28;20197;-68
2023/04/27 15:49:51;;;;;;;1.80;1.23;;;15.90;99.90;19.50;101565.00;;;;5035247;28;20305;-68
2023/04/27 15:52:22;;;;;;;0.57;0.57;;;16.10;99.90;19.60;101555.00;;;;5034512;28;20200;-68
2023/04/27 15:54:48;;;;;;;2.27;0.63;;;16.30;99.90;20.30;101559.00;;;;5024848;28;20183;-68
2023/04/27 15:57:19;;;;;;;1.93;1.87;;;16.40;99.90;20.60;101551.00;;;;5034521;28;20309;-68
2023/04/27 15:59:54;;;;;;;1.77;1.17;;;16.80;99.90;19.50;101557.00;;;;5017632;28;20213;-68
2023/04/27 16:02:26;;;;;;;1.47;1.47;;;16.50;99.90;19.30;101523.00;;;;5035418;28;20641;-68
2023/04/27 16:04:57;;;;;;;0.17;0.17;;;16.10;99.90;19.30;101547.00;;;;5033937;28;20584;-68
2023/04/27 16:07:26;;;;;;;0.43;0.43;;;16.00;99.90;19.70;101539.00;;;;5035021;28;20640;-68
2023/04/27 16:09:59;;;;;;;1.70;1.43;;;16.30;99.90;18.60;101520.00;;;;5035558;28;20184;-68
2023/04/27 16:12:31;;;;;;;0.20;0.20;;;15.90;99.90;18.80;101540.00;;;;5045483;28;20238;-68
2023/04/27 16:14:59;;;;;;;0.43;0.43;;;15.70;99.90;18.90;101534.00;;;;5033979;28;20190;-68
2023/04/27 16:17:37;;;;;;;0.20;0.20;;;15.70;99.90;19.00;101521.00;;;;5033988;28;20196;-68
2023/04/27 16:20:08;;;;;;;0.43;0.43;;;15.60;99.90;19.00;101534.00;;;;5034799;28;20655;-68
2023/04/27 16:22:40;;;;;;;1.23;1.10;;;15.70;99.90;19.00;101532.00;;;;5033941;28;20200;-68
2023/04/27 16:25:09;;;;;;;0.77;0.77;;;15.90;99.90;19.40;101517.00;;;;5014131;28;20280;-68
2023/04/27 16:27:43;;;;;;;2.53;1.33;;;15.80;99.90;18.80;101516.00;;;;5061123;28;20220;-68
2023/04/27 16:30:23;;;;;;;0.37;0.37;;;15.80;99.90;18.60;101511.00;;;;5033465;28;20586;-68
2023/04/27 16:33:09;;;;;;;0.20;0.20;;;15.60;99.90;18.10;101501.00;;;;5029919;28;20221;-68
2023/04/27 16:35:38;;;;;;;6.40;2.87;;;15.50;99.90;18.10;101511.00;;;;5033595;28;20198;-68
2023/04/27 16:38:20;;;;;;;1.90;1.03;;;15.30;99.90;18.00;101504.00;;;;5033677;28;20201;-68
2023/04/27 16:40:51;;;;;;;2.50;2.30;;;15.20;99.90;18.50;101502.00;;;;5030625;28;20187;-68
2023/04/27 16:43:21;;;;;;;2.63;1.10;;;15.20;99.90;18.70;101483.00;;;;5033641;28;20210;-68
2023/04/27 16:45:49;;;;;;;0.33;0.33;;;15.50;99.90;18.70;101477.00;;;;5031881;28;20193;-68
2023/04/27 16:48:21;;;;;;;1.37;1.27;;;15.60;99.90;19.30;101473.00;;;;5033233;28;20228;-68
2023/04/27 16:50:49;;;;;;;0.83;0.83;;;15.50;99.90;18.40;101429.00;;;;5033533;28;20198;-68
2023/04/27 16:53:25;;;;;;;1.80;0.80;;;15.60;99.90;18.10;101488.00;;;;5016959;28;20260;-68
2023/04/27 16:55:58;;;;;;;0.77;0.77;;;15.50;99.90;18.00;101476.00;;;;5034429;28;20187;-68
2023/04/27 16:58:29;;;;;;;2.80;2.07;;;15.20;99.90;17.00;101489.00;;;;5033198;28;20594;-68
2023/04/27 17:00:55;;;;;;;1.07;1.07;;;15.00;99.90;18.60;101475.00;;;;5016667;28;20205;-69
2023/04/27 17:03:26;;;;;;;0.77;0.77;;;15.10;99.90;18.30;101469.00;;;;5032903;28;20200;-68
2023/04/27 17:05:52;;;;;;;0.10;0.10;;;15.20;99.90;18.50;101479.00;;;;5033351;28;20232;-69
2023/04/27 17:08:27;;;;;;;3.60;1.13;;;15.30;99.90;19.30;101480.00;;;;5034173;28;20554;-68
2023/04/27 17:10:58;;;;;;;3.73;0.97;;;15.40;99.90;19.70;101482.00;;;;5022129;28;20179;-68
2023/04/27 17:13:33;;;;;;;0.50;0.50;;;15.70;99.90;19.80;101486.00;;;;5033914;28;20226;-69
2023/04/27 17:16:05;;;;;;;0.73;0.60;;;15.90;99.90;17.70;101497.00;;;;5033064;28;20229;-69
2023/04/27 17:18:36;;;;;;;0.87;0.87;;;15.30;99.90;17.40;101494.00;;;;5032982;28;20273;-69
2023/04/27 17:21:02;;;;;;;1.70;1.60;;;15.00;99.90;18.50;101477.00;;;;5031651;28;20662;-68
2023/04/27 17:23:34;;;;;;;2.17;1.90;;;15.00;99.90;18.30;101495.00;;;;5032750;28;20190;-68
2023/04/27 17:26:06;;;;;;;0.53;0.53;;;15.30;99.90;19.10;101483.00;;;;5033992;28;20186;-68
2023/04/27 17:28:33;;;;;;;0.10;0.10;;;15.30;99.90;19.20;101488.00;;;;5032880;28;20188;-68
2023/04/27 17:31:07;;;;;;;0.20;0.20;;;15.50;99.90;18.70;101495.00;;;;5032762;28;20242;-68
2023/04/27 17:33:39;;;;;;;0.93;0.93;;;15.40;99.90;18.30;101493.00;;;;5033577;28;20694;-68
2023/04/27 17:36:13;;;;;;;0.10;0.10;;;15.30;99.90;19.30;101485.00;;;;5033649;28;20276;-68
2023/04/27 17:38:45;;;;;;;0.10;0.10;;;15.30;99.90;19.50;101485.00;;;;5032575;28;20177;-68
2023/04/27 17:41:14;;;;;;;1.17;1.17;;;15.50;99.90;19.50;101487.00;;;;5032221;28;20244;-68
2023/04/27 17:43:40;;;;;;;1.00;1.00;;;15.80;99.90;18.20;101489.00;;;;5013023;28;20536;-68
2023/04/27 17:46:08;;;;;;;0.40;0.40;;;15.50;99.90;19.00;101482.00;;;;5031723;28;20184;-68
2023/04/27 17:48:43;;;;;;;0.20;0.20;;;15.40;99.90;19.00;101482.00;;;;5016233;28;20197;-68
2023/04/27 17:51:15;;;;;;;0.10;0.10;;;15.50;99.90;19.20;101424.00;;;;5032370;28;20645;-68
2023/04/27 17:53:46;;;;;;;0.30;0.30;;;15.50;99.90;18.90;101430.00;;;;5033617;28;20184;-68
2023/04/27 17:56:17;;;;;;;3.40;3.10;;;15.30;99.90;19.40;101486.00;;;;5032278;28;20196;-68
2023/04/27 17:58:45;;;;;;;0.30;0.30;;;15.50;99.90;20.00;101488.00;;;;5024983;28;20189;-68
2023/04/27 18:01:14;;;;;;;0.13;0.13;;;15.80;99.90;19.40;101494.00;;;;5032950;28;20722;-68
2023/04/27 18:03:47;;;;;;;0.10;0.10;;;15.70;99.90;19.00;101495.00;;;;5032650;28;20189;-68
2023/04/27 18:06:22;;;;;;;1.20;1.20;;;15.50;99.90;18.40;101513.00;;;;5027889;28;20187;-68
2023/04/27 18:09:17;;;;;;;0.23;0.23;;;15.30;99.90;18.90;101515.00;;;;5033536;28;20190;-68
2023/04/27 18:11:46;;;;;;;0.20;0.20;;;15.10;99.90;19.40;101499.00;;;;5031790;28;20640;-68
2023/04/27 18:14:20;;;;;;;0.70;0.70;;;15.40;99.90;19.60;101510.00;;;;5031656;28;20296;-68
2023/04/27 18:16:52;;;;;;;0.87;0.87;;;15.60;99.90;19.50;101501.00;;;;5033363;28;20185;-68
2023/04/27 18:19:24;;;;;;;0.17;0.17;;;15.60;99.90;19.30;101436.00;;;;5031717;28;20251;-68
2023/04/27 18:21:53;;;;;;;0.53;0.53;;;15.50;99.90;19.40;101482.00;;;;5028988;28;20193;-68
2023/04/27 18:24:21;;;;;;;1.40;1.33;;;15.60;99.90;19.10;101477.00;;;;5033021;28;20240;-68